createdAt,value
2023-05-18T00:00:14.175Z,144510.44
2023-05-18T00:02:42.302Z,144477.72
2023-05-18T00:05:10.383Z,144452.34
2023-05-18T00:07:37.608Z,144503.16
2023-05-18T00:10:05.296Z,144481.38
2023-05-18T00:12:32.355Z,144469.28
2023-05-18T00:14:59.401Z,144454.72
2023-05-18T00:17:26.578Z,144435.38
2023-05-18T00:19:53.655Z,144435.38
2023-05-18T00:22:20.762Z,144432.97
2023-05-18T00:24:48.384Z,144388.19
2023-05-18T00:27:15.521Z,144418.41
2023-05-18T00:29:42.573Z,144408.72
2023-05-18T00:32:09.771Z,144370.03
2023-05-18T00:34:37.552Z,144367.59
2023-05-18T00:37:04.598Z,144310.75
2023-05-18T00:39:31.623Z,144372.44
2023-05-18T00:41:58.667Z,144362.75
2023-05-18T00:44:25.858Z,144315.56
2023-05-18T00:46:53.077Z,144307.09
2023-05-18T00:49:20.455Z,144337.31
2023-05-18T00:51:48.032Z,144273.19
2023-05-18T00:54:15.934Z,144321.59
2023-05-18T00:56:46.189Z,144273.19
2023-05-18T00:59:13.481Z,144316.78
2023-05-18T01:01:43.904Z,144309.50
2023-05-18T01:04:16.404Z,144294.97
2023-05-18T01:06:43.692Z,144249.00
2023-05-18T01:09:12.174Z,144282.88
2023-05-18T01:11:57.103Z,144280.47
2023-05-18T01:14:52.529Z,144276.84
2023-05-18T01:17:33.739Z,144273.19
2023-05-18T01:20:12.083Z,144251.47
2023-05-18T01:23:02.005Z,144257.50
2023-05-18T01:25:54.212Z,144236.91
2023-05-18T01:28:26.466Z,144189.75
2023-05-18T01:30:54.909Z,144203.06
2023-05-18T01:33:22.425Z,144207.88
2023-05-18T01:35:49.627Z,144193.38
2023-05-18T01:38:18.889Z,144205.44
2023-05-18T01:40:55.698Z,144200.63
2023-05-18T01:43:30.908Z,144149.81
2023-05-18T01:46:05.261Z,144171.59
2023-05-18T01:48:37.864Z,144184.91
2023-05-18T01:51:06.337Z,144181.28
2023-05-18T01:53:39.542Z,144176.44
2023-05-18T01:56:08.860Z,144128.03
2023-05-18T01:58:37.372Z,144106.31
2023-05-18T02:01:05.114Z,144094.22
2023-05-18T02:03:33.348Z,144138.97
2023-05-18T02:06:00.716Z,144151.03
2023-05-18T02:08:28.013Z,144130.50
2023-05-18T02:10:55.097Z,144103.88
2023-05-18T02:13:22.188Z,144103.88
2023-05-18T02:15:49.592Z,144021.66
2023-05-18T02:18:16.702Z,144053.09
2023-05-18T02:20:43.820Z,144026.50
2023-05-18T02:23:11.002Z,144065.16
2023-05-18T02:25:38.651Z,144062.78
2023-05-18T02:28:06.090Z,144027.69
2023-05-18T02:30:34.495Z,144036.16
2023-05-18T02:33:01.669Z,144033.78
2023-05-18T02:35:29.164Z,143970.91
2023-05-18T02:37:58.253Z,144034.97
2023-05-18T02:40:25.438Z,144034.97
2023-05-18T02:42:52.599Z,144032.53
2023-05-18T02:45:20.892Z,144001.09
2023-05-18T02:47:48.070Z,143992.63
2023-05-18T02:50:15.501Z,144020.47
2023-05-18T02:52:45.504Z,144003.53
2023-05-18T02:55:13.703Z,143944.31
2023-05-18T02:57:56.973Z,143956.38
2023-05-18T03:00:32.417Z,143982.97
2023-05-18T03:03:00.891Z,143963.63
2023-05-18T03:05:29.062Z,143987.78
2023-05-18T03:07:56.291Z,143963.63
2023-05-18T03:10:23.564Z,143958.81
2023-05-18T03:12:50.649Z,143928.56
2023-05-18T03:15:17.930Z,143927.38
2023-05-18T03:17:45.302Z,143932.22
2023-05-18T03:20:15.398Z,143917.72
2023-05-18T03:22:42.875Z,143922.56
2023-05-18T03:25:09.989Z,143910.44
2023-05-18T03:27:37.865Z,143920.13
2023-05-18T03:30:05.776Z,143929.81
2023-05-18T03:32:33.923Z,143893.56
2023-05-18T03:35:01.194Z,143901.97
2023-05-18T03:37:28.880Z,143889.94
2023-05-18T03:40:08.233Z,143876.63
2023-05-18T03:42:35.457Z,143881.47
2023-05-18T03:45:03.028Z,143801.72
2023-05-18T03:47:30.131Z,143895.97
2023-05-18T03:49:57.220Z,143883.84
2023-05-18T03:52:24.469Z,143866.97
2023-05-18T03:54:52.035Z,143876.63
2023-05-18T03:57:19.130Z,143869.38
2023-05-18T03:59:46.298Z,143823.47
2023-05-18T04:02:13.781Z,143875.44
2023-05-18T04:04:45.956Z,143860.91
2023-05-18T04:07:16.450Z,143851.25
2023-05-18T04:09:44.446Z,143883.84
2023-05-18T04:12:11.717Z,143816.25
2023-05-18T04:14:38.849Z,143833.13
2023-05-18T04:17:06.648Z,143852.47
2023-05-18T04:19:42.945Z,143900.78
2023-05-18T04:22:10.221Z,143888.75
2023-05-18T04:24:38.359Z,143911.69
2023-05-18T04:27:05.506Z,143880.28
2023-05-18T04:29:32.624Z,143958.81
2023-05-18T04:32:01.002Z,143958.81
2023-05-18T04:34:29.769Z,143974.50
2023-05-18T04:37:00.139Z,143985.41
2023-05-18T04:39:27.351Z,144019.22
2023-05-18T04:41:58.297Z,144033.78
2023-05-18T04:44:28.131Z,144004.72
2023-05-18T04:46:57.640Z,144074.88
2023-05-18T04:49:26.098Z,144084.53
2023-05-18T04:51:58.946Z,144082.09
2023-05-18T04:54:30.735Z,144094.22
2023-05-18T04:56:59.002Z,144145.00
2023-05-18T04:59:29.078Z,144166.75
2023-05-18T05:01:56.367Z,144169.16
2023-05-18T05:04:24.851Z,144220.00
2023-05-18T05:06:51.942Z,144218.75
2023-05-18T05:09:19.051Z,144230.88
2023-05-18T05:11:46.599Z,144298.63
2023-05-18T05:14:13.840Z,144274.44
2023-05-18T05:16:41.458Z,144331.28
2023-05-18T05:19:08.595Z,144338.56
2023-05-18T05:21:36.155Z,144357.91
2023-05-18T05:24:05.933Z,144371.22
2023-05-18T05:26:33.062Z,144437.81
2023-05-18T05:29:00.196Z,144483.81
2023-05-18T05:31:27.558Z,144533.47
2023-05-18T05:33:54.649Z,144532.22
2023-05-18T05:36:21.773Z,144566.13
2023-05-18T05:38:48.834Z,144601.28
2023-05-18T05:41:16.382Z,144652.13
2023-05-18T05:43:43.532Z,144683.69
2023-05-18T05:46:10.849Z,144697.00
2023-05-18T05:48:37.939Z,144752.72
2023-05-18T05:51:05.119Z,144740.59
2023-05-18T05:53:33.261Z,144789.09
2023-05-18T05:56:00.332Z,144886.03
2023-05-18T05:58:27.420Z,144818.16
2023-05-18T06:00:58.514Z,144825.44
2023-05-18T06:03:26.648Z,144878.78
2023-05-18T06:05:56.324Z,144886.03
2023-05-18T06:08:26.532Z,144923.59
2023-05-18T06:10:55.010Z,144944.22
2023-05-18T06:13:22.463Z,144922.41
2023-05-18T06:15:54.921Z,145033.97
2023-05-18T06:18:22.950Z,145050.94
2023-05-18T06:20:51.260Z,145093.41
2023-05-18T06:23:22.704Z,145106.75
2023-05-18T06:26:01.675Z,145157.69
2023-05-18T06:28:45.262Z,145148.00
2023-05-18T06:31:25.000Z,145150.41
2023-05-18T06:33:59.897Z,145241.41
2023-05-18T06:36:27.038Z,145225.66
2023-05-18T06:38:54.085Z,145330.06
2023-05-18T06:41:22.197Z,145332.47
2023-05-18T06:43:50.549Z,145351.94
2023-05-18T06:46:23.857Z,145364.03
2023-05-18T06:48:54.854Z,145469.66
2023-05-18T06:51:22.213Z,145513.41
2023-05-18T06:53:50.333Z,145578.97
2023-05-18T06:56:18.693Z,145633.66
2023-05-18T06:58:46.619Z,145636.09
2023-05-18T07:01:14.455Z,145659.19
2023-05-18T07:03:41.854Z,145643.41
2023-05-18T07:06:09.018Z,145696.84
2023-05-18T07:08:37.021Z,145752.81
2023-05-18T07:11:04.435Z,145774.66
2023-05-18T07:13:31.979Z,145807.53
2023-05-18T07:15:59.124Z,145811.13
2023-05-18T07:18:26.726Z,145852.47
2023-05-18T07:20:53.837Z,145905.97
2023-05-18T07:23:21.333Z,145925.41
2023-05-18T07:25:49.106Z,145862.22
2023-05-18T07:28:17.100Z,145895.03
2023-05-18T07:30:44.227Z,145905.97
2023-05-18T07:33:11.428Z,145961.91
2023-05-18T07:35:38.666Z,145986.25
2023-05-18T07:38:05.758Z,145972.88
2023-05-18T07:40:32.964Z,146003.25
2023-05-18T07:43:00.023Z,146041.00
2023-05-18T07:45:27.090Z,146034.88
2023-05-18T07:47:54.481Z,146095.78
2023-05-18T07:50:21.769Z,146093.31
2023-05-18T07:52:48.856Z,146060.44
2023-05-18T07:55:16.482Z,146134.69
2023-05-18T07:57:43.512Z,146124.97
2023-05-18T08:00:11.296Z,146146.88
2023-05-18T08:02:41.318Z,146126.16
2023-05-18T08:05:10.990Z,146166.31
2023-05-18T08:07:38.242Z,146187.03
2023-05-18T08:10:06.098Z,146253.94
2023-05-18T08:12:33.146Z,146271.00
2023-05-18T08:15:00.270Z,146278.31
2023-05-18T08:17:27.355Z,146307.50
2023-05-18T08:19:54.677Z,146309.97
2023-05-18T08:22:21.837Z,146308.72
2023-05-18T08:24:48.908Z,146300.25
2023-05-18T08:27:16.088Z,146290.47
2023-05-18T08:29:43.270Z,146392.75
2023-05-18T08:32:10.638Z,146415.94
2023-05-18T08:34:37.774Z,146390.31
2023-05-18T08:37:05.143Z,146324.56
2023-05-18T08:39:32.454Z,146312.38
2023-05-18T08:42:03.752Z,146297.78
2023-05-18T08:44:38.828Z,146278.31
2023-05-18T08:47:09.698Z,146300.25
2023-05-18T08:49:37.086Z,146190.69
2023-05-18T08:52:05.583Z,146305.09
2023-05-18T08:54:33.112Z,146317.25
2023-05-18T08:57:01.008Z,146346.50
2023-05-18T08:59:31.841Z,146365.97
2023-05-18T09:01:59.349Z,146329.44
2023-05-18T09:04:27.703Z,146256.41
2023-05-18T09:06:56.342Z,146305.09
2023-05-18T09:09:24.107Z,146339.16
2023-05-18T09:11:52.188Z,146398.81
2023-05-18T09:14:19.369Z,146415.94
2023-05-18T09:16:46.401Z,146365.97
2023-05-18T09:19:13.543Z,146353.78
2023-05-18T09:21:40.762Z,146470.75
2023-05-18T09:24:08.455Z,146412.28
2023-05-18T09:26:35.644Z,146485.34
2023-05-18T09:29:02.747Z,146588.91
2023-05-18T09:31:30.696Z,146587.66
2023-05-18T09:33:58.704Z,146607.19
2023-05-18T09:36:26.835Z,146642.47
2023-05-18T09:38:53.972Z,146621.78
2023-05-18T09:41:21.802Z,146614.47
2023-05-18T09:43:49.145Z,146626.66
2023-05-18T09:46:16.262Z,146666.88
2023-05-18T09:48:46.462Z,146712.03
2023-05-18T09:51:16.832Z,146682.69
2023-05-18T09:53:57.734Z,146644.94
2023-05-18T09:56:26.833Z,146641.28
2023-05-18T09:58:54.169Z,146651.00
2023-05-18T10:01:21.712Z,146651.00
2023-05-18T10:03:49.784Z,146651.00
2023-05-18T10:06:21.320Z,146692.44
2023-05-18T10:08:48.494Z,146716.91
2023-05-18T10:11:21.717Z,146704.66
2023-05-18T10:13:55.150Z,146841.22
2023-05-18T10:16:24.130Z,146822.94
2023-05-18T10:18:53.862Z,146746.13
2023-05-18T10:21:22.773Z,146735.19
2023-05-18T10:23:51.034Z,146687.56
2023-05-18T10:26:22.118Z,146731.50
2023-05-18T10:28:50.387Z,146735.19
2023-05-18T10:31:17.563Z,146814.41
2023-05-18T10:33:46.108Z,146822.94
2023-05-18T10:36:13.283Z,146796.09
2023-05-18T10:38:45.064Z,146832.69
2023-05-18T10:41:13.431Z,146905.84
2023-05-18T10:43:41.677Z,146925.34
2023-05-18T10:46:09.612Z,146960.72
2023-05-18T10:48:40.820Z,146985.09
2023-05-18T10:51:08.356Z,146948.50
2023-05-18T10:53:36.699Z,146940.00
2023-05-18T10:56:04.139Z,146943.63
2023-05-18T10:58:32.532Z,146885.13
2023-05-18T11:01:01.876Z,146829.00
2023-05-18T11:03:32.598Z,146885.13
2023-05-18T11:06:09.011Z,146875.34
2023-05-18T11:08:49.397Z,146855.84
2023-05-18T11:11:19.259Z,146900.97
2023-05-18T11:13:51.287Z,146848.56
2023-05-18T11:16:19.893Z,146926.59
2023-05-18T11:18:52.256Z,147080.28
2023-05-18T11:21:41.556Z,147051.03
2023-05-18T11:24:18.010Z,147136.41
2023-05-18T11:26:50.229Z,147097.38
2023-05-18T11:29:20.434Z,147019.31
2023-05-18T11:31:55.462Z,147007.09
2023-05-18T11:34:49.752Z,147075.41
2023-05-18T11:37:38.110Z,147138.84
2023-05-18T11:40:11.287Z,147219.41
2023-05-18T11:42:39.176Z,147143.75
2023-05-18T11:45:08.083Z,147059.56
2023-05-18T11:47:40.511Z,146943.63
2023-05-18T11:50:08.622Z,147080.28
2023-05-18T11:52:51.538Z,146990.00
2023-05-18T11:55:20.547Z,147011.97
2023-05-18T11:57:52.099Z,147011.97
2023-05-18T12:00:20.370Z,146993.69
2023-05-18T12:02:48.944Z,147049.78
2023-05-18T12:05:17.174Z,147093.72
2023-05-18T12:07:45.427Z,147115.69
2023-05-18T12:10:17.138Z,147165.72
2023-05-18T12:12:49.083Z,147184.00
2023-05-18T12:15:17.461Z,147153.50
2023-05-18T12:17:49.798Z,147122.97
2023-05-18T12:20:22.305Z,147190.09
2023-05-18T12:22:53.851Z,147188.91
2023-05-18T12:25:23.375Z,147210.88
2023-05-18T12:27:52.110Z,147221.84
2023-05-18T12:30:20.230Z,147176.69
2023-05-18T12:32:50.864Z,147224.28
2023-05-18T12:35:21.743Z,147140.06
2023-05-18T12:37:48.946Z,147112.00
2023-05-18T12:40:17.626Z,147075.41
2023-05-18T12:43:01.042Z,147135.19
2023-05-18T12:45:33.464Z,147129.09
2023-05-18T12:48:11.390Z,147204.72
2023-05-18T12:50:48.777Z,147204.72
2023-05-18T12:53:17.114Z,147135.19
2023-05-18T12:55:44.290Z,147219.41
2023-05-18T12:58:18.119Z,147251.16
2023-05-18T13:00:47.331Z,147216.97
2023-05-18T13:03:16.902Z,147192.56
2023-05-18T13:05:46.134Z,147243.81
2023-05-18T13:08:21.697Z,147293.91
2023-05-18T13:11:01.390Z,147198.66
2023-05-18T13:13:36.685Z,147229.19
2023-05-18T13:16:03.956Z,147275.59
2023-05-18T13:18:31.150Z,147352.50
2023-05-18T13:20:58.615Z,147362.28
2023-05-18T13:23:29.906Z,147342.72
2023-05-18T13:25:58.804Z,147402.56
2023-05-18T13:28:26.827Z,147375.72
2023-05-18T13:30:54.207Z,147483.13
2023-05-18T13:33:21.395Z,147451.38
2023-05-18T13:35:49.737Z,147507.59
2023-05-18T13:38:17.064Z,147527.16
2023-05-18T13:40:45.629Z,147538.16
2023-05-18T13:43:13.901Z,147626.09
2023-05-18T13:45:41.985Z,147573.59
2023-05-18T13:48:10.634Z,147483.13
2023-05-18T13:50:38.930Z,147622.47
2023-05-18T13:53:06.646Z,147561.34
2023-05-18T13:55:34.759Z,147629.75
2023-05-18T13:58:01.864Z,147634.66
2023-05-18T14:00:29.021Z,147615.13
2023-05-18T14:02:56.586Z,147639.53
2023-05-18T14:05:24.383Z,147720.25
2023-05-18T14:07:54.639Z,147722.66
2023-05-18T14:10:21.881Z,147764.22
2023-05-18T14:12:49.195Z,147769.16
2023-05-18T14:15:16.297Z,147752.03
2023-05-18T14:17:43.668Z,147722.66
2023-05-18T14:20:12.066Z,147566.25
2023-05-18T14:22:39.537Z,147673.78
2023-05-18T14:25:06.967Z,147705.53
2023-05-18T14:27:34.155Z,147739.78
2023-05-18T14:30:01.372Z,147877.91
2023-05-18T14:32:28.773Z,147830.25
2023-05-18T14:34:57.829Z,147876.69
2023-05-18T14:37:25.474Z,147915.84
2023-05-18T14:39:52.700Z,147930.50
2023-05-18T14:42:19.851Z,147879.16
2023-05-18T14:44:47.060Z,147923.16
2023-05-18T14:47:14.211Z,147884.03
2023-05-18T14:49:41.305Z,147774.03
2023-05-18T14:52:08.504Z,147716.53
2023-05-18T14:54:36.546Z,147879.16
2023-05-18T14:57:03.970Z,148028.34
2023-05-18T14:59:31.128Z,148094.38
2023-05-18T15:01:58.353Z,148162.94
2023-05-18T15:04:25.886Z,148165.41
2023-05-18T15:06:53.076Z,148209.47
2023-05-18T15:09:20.367Z,148368.56
2023-05-18T15:11:47.583Z,148571.84
2023-05-18T15:14:14.764Z,148538.75
2023-05-18T15:16:42.410Z,148799.75
2023-05-18T15:19:09.889Z,148911.28
2023-05-18T15:21:37.131Z,148767.88
2023-05-18T15:24:04.276Z,148706.59
2023-05-18T15:26:31.807Z,148906.41
2023-05-18T15:28:59.031Z,149083.00
2023-05-18T15:31:26.296Z,149049.81
2023-05-18T15:33:53.598Z,149049.81
2023-05-18T15:36:21.699Z,149078.03
2023-05-18T15:38:48.785Z,149092.78
2023-05-18T15:41:16.036Z,149014.28
2023-05-18T15:43:43.517Z,149098.91
2023-05-18T15:46:10.786Z,149327.09
2023-05-18T15:48:37.987Z,149017.94
2023-05-18T15:51:05.228Z,149194.56
2023-05-18T15:53:32.344Z,149322.19
2023-05-18T15:56:00.380Z,149206.84
2023-05-18T15:58:27.556Z,149332.00
2023-05-18T16:00:54.928Z,149440.00
2023-05-18T16:03:22.298Z,149334.44
2023-05-18T16:05:50.204Z,149271.91
2023-05-18T16:08:17.415Z,149447.38
2023-05-18T16:10:44.485Z,149278.00
2023-05-18T16:13:11.601Z,149502.59
2023-05-18T16:15:38.676Z,149635.22
2023-05-18T16:18:06.004Z,149528.34
2023-05-18T16:20:33.410Z,149496.44
2023-05-18T16:23:00.701Z,149594.69
2023-05-18T16:25:28.993Z,149282.91
2023-05-18T16:27:56.372Z,149054.69
2023-05-18T16:30:23.613Z,149152.88
2023-05-18T16:32:50.737Z,148966.44
2023-05-18T16:35:17.904Z,149140.59
2023-05-18T16:37:45.153Z,149263.31
2023-05-18T16:40:12.469Z,149362.63
2023-05-18T16:42:39.522Z,149397.00
2023-05-18T16:45:06.919Z,149322.19
2023-05-18T16:47:34.131Z,149446.16
2023-05-18T16:50:01.389Z,149408.03
2023-05-18T16:52:28.880Z,149285.38
2023-05-18T16:54:55.987Z,149408.03
2023-05-18T16:57:25.349Z,149303.78
2023-05-18T16:59:53.764Z,149182.28
2023-05-18T17:02:21.082Z,149425.28
2023-05-18T17:04:49.800Z,149297.63
2023-05-18T17:07:17.346Z,149253.50
2023-05-18T17:09:44.532Z,149161.47
2023-05-18T17:12:12.472Z,149176.16
2023-05-18T17:14:39.827Z,149108.72
2023-05-18T17:17:07.614Z,149138.16
2023-05-18T17:19:35.284Z,149165.09
2023-05-18T17:22:03.606Z,148968.94
2023-05-18T17:24:30.761Z,148945.63
2023-05-18T17:26:59.004Z,148964.03
2023-05-18T17:29:27.010Z,149066.97
2023-05-18T17:31:54.518Z,148886.75
2023-05-18T17:34:22.365Z,148886.75
2023-05-18T17:36:49.984Z,148859.78
2023-05-18T17:39:17.078Z,148964.03
2023-05-18T17:41:44.666Z,148799.75
2023-05-18T17:44:13.941Z,148789.94
2023-05-18T17:46:41.605Z,148698.03
2023-05-18T17:49:09.101Z,148543.69
2023-05-18T17:51:36.219Z,148207.00
2023-05-18T17:54:03.747Z,147827.78
2023-05-18T17:56:31.675Z,147701.88
2023-05-18T17:58:59.392Z,147551.59
2023-05-18T18:01:27.611Z,147385.47
2023-05-18T18:03:55.574Z,147343.97
2023-05-18T18:06:23.490Z,147236.47
2023-05-18T18:08:53.639Z,147212.06
2023-05-18T18:11:21.939Z,147190.09
2023-05-18T18:13:49.884Z,147215.75
2023-05-18T18:16:18.181Z,147190.09
2023-05-18T18:18:45.420Z,147163.25
2023-05-18T18:21:12.851Z,147062.00
2023-05-18T18:23:40.433Z,147099.78
2023-05-18T18:26:08.385Z,147038.81
2023-05-18T18:28:35.720Z,146948.50
2023-05-18T18:31:03.606Z,147014.44
2023-05-18T18:33:32.509Z,146943.63
2023-05-18T18:36:02.230Z,146940.00
2023-05-18T18:38:29.425Z,146909.50
2023-05-18T18:41:01.204Z,146907.03
2023-05-18T18:43:28.637Z,146881.47
2023-05-18T18:45:57.141Z,146875.34
2023-05-18T18:48:25.410Z,146825.34
2023-05-18T18:50:53.240Z,146830.25
2023-05-18T18:53:20.517Z,146766.88
2023-05-18T18:55:47.915Z,146731.50
2023-05-18T18:58:15.623Z,146729.06
2023-05-18T19:00:42.888Z,146724.19
2023-05-18T19:03:10.402Z,146692.44
2023-05-18T19:05:38.701Z,146610.84
2023-05-18T19:08:06.106Z,146621.78
2023-05-18T19:10:34.332Z,146616.91
2023-05-18T19:13:05.608Z,146521.88
2023-05-18T19:15:36.634Z,146563.31
2023-05-18T19:18:04.169Z,146487.81
2023-05-18T19:20:31.327Z,146492.66
2023-05-18T19:22:58.484Z,146504.81
2023-05-18T19:25:26.266Z,146499.94
2023-05-18T19:27:53.928Z,146420.81
2023-05-18T19:30:22.312Z,146445.16
2023-05-18T19:32:50.206Z,146436.63
2023-05-18T19:35:22.131Z,146436.63
2023-05-18T19:37:49.929Z,146396.41
2023-05-18T19:40:17.338Z,146335.50
2023-05-18T19:42:44.475Z,146368.38
2023-05-18T19:45:11.646Z,146351.34
2023-05-18T19:47:38.744Z,146344.03
2023-05-18T19:50:07.061Z,146319.69
2023-05-18T19:52:34.366Z,146318.50
2023-05-18T19:55:02.212Z,146341.63
2023-05-18T19:57:29.782Z,146329.44
2023-05-18T19:59:57.834Z,146279.53
2023-05-18T20:02:25.604Z,146300.25
2023-05-18T20:04:53.615Z,146200.44
2023-05-18T20:07:22.388Z,146207.69
2023-05-18T20:09:49.786Z,146159.06
2023-05-18T20:12:16.910Z,146138.34
2023-05-18T20:14:45.709Z,146095.78
2023-05-18T20:17:13.977Z,146022.75
2023-05-18T20:19:45.418Z,146005.69
2023-05-18T20:22:12.485Z,146025.16
2023-05-18T20:24:43.245Z,145978.94
2023-05-18T20:27:16.741Z,146027.59
2023-05-18T20:29:43.859Z,146005.69
2023-05-18T20:32:11.103Z,145976.53
2023-05-18T20:34:38.287Z,145964.34
2023-05-18T20:37:07.929Z,145930.28
2023-05-18T20:39:37.554Z,145940.03
2023-05-18T20:42:05.635Z,145913.28
2023-05-18T20:44:32.769Z,145910.84
2023-05-18T20:47:01.049Z,145864.63
2023-05-18T20:49:28.148Z,145840.34
2023-05-18T20:51:55.403Z,145829.38
2023-05-18T20:54:22.582Z,145784.38
2023-05-18T20:56:51.144Z,145752.81
2023-05-18T20:59:18.298Z,145743.06
2023-05-18T21:01:45.456Z,145732.16
2023-05-18T21:04:13.429Z,145760.09
2023-05-18T21:06:43.925Z,145733.34
2023-05-18T21:09:11.826Z,145689.56
2023-05-18T21:11:38.890Z,145716.38
2023-05-18T21:14:06.036Z,145718.78
2023-05-18T21:16:33.702Z,145704.19
2023-05-18T21:19:00.959Z,145706.59
2023-05-18T21:21:28.520Z,145696.84
2023-05-18T21:23:55.591Z,145685.91
2023-05-18T21:26:22.844Z,145632.44
2023-05-18T21:28:49.962Z,145626.38
2023-05-18T21:31:17.070Z,145611.81
2023-05-18T21:33:47.874Z,145623.94
2023-05-18T21:36:26.248Z,145589.94
2023-05-18T21:38:53.281Z,145578.97
2023-05-18T21:41:21.705Z,145511.00
2023-05-18T21:43:48.727Z,145543.78
2023-05-18T21:46:15.872Z,145549.84
2023-05-18T21:48:42.935Z,145536.47
2023-05-18T21:51:11.749Z,145495.19
2023-05-18T21:53:38.813Z,145504.91
2023-05-18T21:56:06.261Z,145502.50
2023-05-18T21:58:33.455Z,145449.03
2023-05-18T22:01:00.899Z,145458.75
2023-05-18T22:03:27.977Z,145470.91
2023-05-18T22:05:55.065Z,145461.22
2023-05-18T22:08:22.220Z,145436.88
2023-05-18T22:10:49.287Z,145438.13
2023-05-18T22:13:16.493Z,145415.03
2023-05-18T22:15:43.543Z,145417.47
2023-05-18T22:18:10.747Z,145361.63
2023-05-18T22:20:38.890Z,145390.75
2023-05-18T22:23:06.167Z,145366.50
2023-05-18T22:25:33.178Z,145385.91
2023-05-18T22:28:00.231Z,145368.91
2023-05-18T22:30:30.432Z,145356.78
2023-05-18T22:32:58.465Z,145317.91
2023-05-18T22:35:25.590Z,145307.00
2023-05-18T22:37:52.680Z,145276.66
2023-05-18T22:40:19.800Z,145231.69
2023-05-18T22:42:46.874Z,145242.66
2023-05-18T22:45:14.086Z,145172.25
2023-05-18T22:47:41.346Z,145186.78
2023-05-18T22:50:09.089Z,145143.16
2023-05-18T22:52:36.752Z,145184.41
2023-05-18T22:55:05.453Z,145167.41
2023-05-18T22:57:32.558Z,145166.19
2023-05-18T22:59:59.622Z,145141.91
2023-05-18T23:02:27.160Z,145152.84
2023-05-18T23:04:54.233Z,145145.56
2023-05-18T23:07:23.633Z,145116.44
2023-05-18T23:09:52.157Z,145109.16
2023-05-18T23:12:20.312Z,145070.38
2023-05-18T23:14:49.618Z,145099.47
2023-05-18T23:17:22.704Z,145069.13
2023-05-18T23:19:53.753Z,145050.94
2023-05-18T23:22:21.385Z,145042.47
2023-05-18T23:24:48.463Z,145046.06
2023-05-18T23:27:15.492Z,145026.69
2023-05-18T23:29:42.738Z,145007.28
2023-05-18T23:32:10.000Z,145014.53
2023-05-18T23:34:37.572Z,145020.63
2023-05-18T23:37:11.682Z,144998.81
2023-05-18T23:39:43.445Z,144981.81
2023-05-18T23:42:12.415Z,144929.69
2023-05-18T23:44:39.761Z,144961.22
2023-05-18T23:47:07.190Z,144939.38
2023-05-18T23:49:34.412Z,144934.53
2023-05-18T23:52:02.625Z,144895.72
2023-05-18T23:54:30.252Z,144921.19
2023-05-18T23:56:58.790Z,144861.81
2023-05-18T23:59:26.248Z,144824.25
